sensor_id;sensor_type;location;lat;lon;timestamp;pressure;altitude;pressure_sealevel;temperature;humidity
77871;BME280;67067;46.850;7.578;2023-09-19T00:00:18;95347.31;;;15.01;53.49
77871;BME280;67067;46.850;7.578;2023-09-19T00:01:20;95355.31;;;15.01;54.58
77871;BME280;67067;46.850;7.578;2023-09-19T00:02:22;95352.09;;;15.04;54.55
77871;BME280;67067;46.850;7.578;2023-09-19T00:03:24;95350.59;;;14.93;55.05
77871;BME280;67067;46.850;7.578;2023-09-19T00:04:29;95355.03;;;15.02;54.72
77871;BME280;67067;46.850;7.578;2023-09-19T00:05:35;95351.84;;;15.00;54.43
77871;BME280;67067;46.850;7.578;2023-09-19T00:06:38;95356.91;;;15.02;54.71
77871;BME280;67067;46.850;7.578;2023-09-19T00:07:42;95349.44;;;15.04;54.76
77871;BME280;67067;46.850;7.578;2023-09-19T00:08:44;95349.03;;;14.86;54.96
77871;BME280;67067;46.850;7.578;2023-09-19T00:09:46;95353.81;;;14.89;54.99
77871;BME280;67067;46.850;7.578;2023-09-19T00:10:48;95347.41;;;14.91;55.13
77871;BME280;67067;46.850;7.578;2023-09-19T00:11:50;95343.44;;;14.83;54.84
77871;BME280;67067;46.850;7.578;2023-09-19T00:12:53;95339.16;;;14.87;54.97
77871;BME280;67067;46.850;7.578;2023-09-19T00:13:57;95348.03;;;14.77;55.40
77871;BME280;67067;46.850;7.578;2023-09-19T00:15:00;95346.44;;;14.76;55.89
77871;BME280;67067;46.850;7.578;2023-09-19T00:16:10;95345.38;;;14.72;56.00
77871;BME280;67067;46.850;7.578;2023-09-19T00:17:13;95348.06;;;14.72;55.84
77871;BME280;67067;46.850;7.578;2023-09-19T00:18:16;95344.09;;;14.64;56.09
77871;BME280;67067;46.850;7.578;2023-09-19T00:19:20;95345.66;;;14.70;55.71
77871;BME280;67067;46.850;7.578;2023-09-19T00:20:22;95341.41;;;14.69;55.42
77871;BME280;67067;46.850;7.578;2023-09-19T00:21:27;95339.03;;;14.63;56.20
77871;BME280;67067;46.850;7.578;2023-09-19T00:22:29;95348.69;;;14.48;57.15
77871;BME280;67067;46.850;7.578;2023-09-19T00:23:36;95347.03;;;14.57;56.59
77871;BME280;67067;46.850;7.578;2023-09-19T00:24:38;95350.22;;;14.59;56.88
77871;BME280;67067;46.850;7.578;2023-09-19T00:25:45;95357.69;;;14.57;56.86
77871;BME280;67067;46.850;7.578;2023-09-19T00:26:47;95352.38;;;14.57;56.80
77871;BME280;67067;46.850;7.578;2023-09-19T00:27:54;95348.09;;;14.56;56.92
77871;BME280;67067;46.850;7.578;2023-09-19T00:29:00;95352.66;;;14.56;56.93
77871;BME280;67067;46.850;7.578;2023-09-19T00:30:07;95344.91;;;14.59;56.74
77871;BME280;67067;46.850;7.578;2023-09-19T00:31:10;95346.25;;;14.57;57.19
77871;BME280;67067;46.850;7.578;2023-09-19T00:32:14;95343.63;;;14.52;56.96
77871;BME280;67067;46.850;7.578;2023-09-19T00:33:16;95346.53;;;14.50;57.16
77871;BME280;67067;46.850;7.578;2023-09-19T00:34:25;95363.59;;;14.49;57.81
77871;BME280;67067;46.850;7.578;2023-09-19T00:35:27;95368.91;;;14.49;57.50
77871;BME280;67067;46.850;7.578;2023-09-19T00:36:29;95367.91;;;14.40;57.57
77871;BME280;67067;46.850;7.578;2023-09-19T00:37:31;95367.31;;;14.48;57.57
77871;BME280;67067;46.850;7.578;2023-09-19T00:38:35;95362.78;;;14.54;57.62
77871;BME280;67067;46.850;7.578;2023-09-19T00:39:37;95373.16;;;14.55;57.29
77871;BME280;67067;46.850;7.578;2023-09-19T00:40:44;95369.97;;;14.53;57.22
77871;BME280;67067;46.850;7.578;2023-09-19T00:41:45;95372.63;;;14.53;57.60
77871;BME280;67067;46.850;7.578;2023-09-19T00:42:50;95369.44;;;14.51;57.52
77871;BME280;67067;46.850;7.578;2023-09-19T00:43:54;95371.03;;;14.52;57.63
77871;BME280;67067;46.850;7.578;2023-09-19T00:44:58;95376.34;;;14.52;57.66
77871;BME280;67067;46.850;7.578;2023-09-19T00:46:04;95381.44;;;14.54;57.45
77871;BME280;67067;46.850;7.578;2023-09-19T00:47:08;95367.84;;;14.50;57.76
77871;BME280;67067;46.850;7.578;2023-09-19T00:48:11;95358.28;;;14.44;57.59
77871;BME280;67067;46.850;7.578;2023-09-19T00:49:15;95365.78;;;14.37;58.09
77871;BME280;67067;46.850;7.578;2023-09-19T00:50:19;95359.91;;;14.40;57.85
77871;BME280;67067;46.850;7.578;2023-09-19T00:51:23;95359.91;;;14.40;57.93
77871;BME280;67067;46.850;7.578;2023-09-19T00:52:29;95369.22;;;14.37;57.98
77871;BME280;67067;46.850;7.578;2023-09-19T00:53:32;95359.13;;;14.39;58.34
77871;BME280;67067;46.850;7.578;2023-09-19T00:54:35;95368.69;;;14.40;58.00
77871;BME280;67067;46.850;7.578;2023-09-19T00:55:39;95369.22;;;14.37;58.20
77871;BME280;67067;46.850;7.578;2023-09-19T00:56:48;95375.09;;;14.39;57.81
77871;BME280;67067;46.850;7.578;2023-09-19T00:57:52;95376.41;;;14.42;58.01
77871;BME280;67067;46.850;7.578;2023-09-19T00:58:54;95370.53;;;14.45;57.62
77871;BME280;67067;46.850;7.578;2023-09-19T00:59:56;95369.22;;;14.42;57.83
77871;BME280;67067;46.850;7.578;2023-09-19T01:01:01;95365.28;;;14.29;58.32
77871;BME280;67067;46.850;7.578;2023-09-19T01:02:07;95372.16;;;14.36;58.05
77871;BME280;67067;46.850;7.578;2023-09-19T01:03:10;95362.31;;;14.36;58.14
77871;BME280;67067;46.850;7.578;2023-09-19T01:04:14;95373.75;;;14.37;58.32
77871;BME280;67067;46.850;7.578;2023-09-19T01:05:19;95374.53;;;14.37;58.39
77871;BME280;67067;46.850;7.578;2023-09-19T01:06:21;95369.47;;;14.46;58.07
77871;BME280;67067;46.850;7.578;2023-09-19T01:07:22;95366.31;;;14.34;58.32
77871;BME280;67067;46.850;7.578;2023-09-19T01:08:24;95370.28;;;14.47;58.06
77871;BME280;67067;46.850;7.578;2023-09-19T01:09:31;95375.84;;;14.45;57.93
77871;BME280;67067;46.850;7.578;2023-09-19T01:10:32;95375.91;;;14.35;58.03
77871;BME280;67067;46.850;7.578;2023-09-19T01:11:42;95368.69;;;14.40;57.93
77871;BME280;67067;46.850;7.578;2023-09-19T01:13:02;95377.22;;;14.42;57.97
77871;BME280;67067;46.850;7.578;2023-09-19T01:17:14;95378.56;;;14.35;57.94
77871;BME280;67067;46.850;7.578;2023-09-19T01:18:52;95379.63;;;14.39;58.13
77871;BME280;67067;46.850;7.578;2023-09-19T01:20:01;95376.94;;;14.44;58.30
77871;BME280;67067;46.850;7.578;2023-09-19T01:22:22;95372.94;;;14.36;58.07
77871;BME280;67067;46.850;7.578;2023-09-19T01:28:32;95373.50;;;14.33;58.20
77871;BME280;67067;46.850;7.578;2023-09-19T01:29:42;95379.38;;;14.30;58.42
77871;BME280;67067;46.850;7.578;2023-09-19T01:30:51;95375.38;;;14.33;58.49
77871;BME280;67067;46.850;7.578;2023-09-19T01:32:01;95374.84;;;14.30;58.82
77871;BME280;67067;46.850;7.578;2023-09-19T01:33:09;95374.56;;;14.32;58.63
77871;BME280;67067;46.850;7.578;2023-09-19T01:34:12;95372.16;;;14.36;58.63
77871;BME280;67067;46.850;7.578;2023-09-19T01:35:14;95374.84;;;14.36;58.78
77871;BME280;67067;46.850;7.578;2023-09-19T01:36:18;95379.09;;;14.37;58.55
77871;BME280;67067;46.850;7.578;2023-09-19T01:37:21;95371.69;;;14.18;58.98
77871;BME280;67067;46.850;7.578;2023-09-19T01:38:26;95366.56;;;14.32;58.74
77871;BME280;67067;46.850;7.578;2023-09-19T01:39:29;95373.75;;;14.37;58.52
77871;BME280;67067;46.850;7.578;2023-09-19T01:41:00;95371.13;;;14.32;58.57
77871;BME280;67067;46.850;7.578;2023-09-19T01:42:18;95367.38;;;14.27;58.69
77871;BME280;67067;46.850;7.578;2023-09-19T01:43:32;95365.78;;;14.26;58.70
77871;BME280;67067;46.850;7.578;2023-09-19T01:46:09;95368.50;;;14.11;59.59
77871;BME280;67067;46.850;7.578;2023-09-19T01:47:37;95364.75;;;14.17;59.31
77871;BME280;67067;46.850;7.578;2023-09-19T01:48:46;95364.44;;;14.24;59.01
77871;BME280;67067;46.850;7.578;2023-09-19T01:51:05;95371.38;;;14.25;58.82
77871;BME280;67067;46.850;7.578;2023-09-19T01:52:13;95364.19;;;14.25;58.91
77871;BME280;67067;46.850;7.578;2023-09-19T01:53:26;95370.59;;;14.24;58.97
77871;BME280;67067;46.850;7.578;2023-09-19T01:54:46;95367.94;;;14.19;59.28
77871;BME280;67067;46.850;7.578;2023-09-19T01:55:53;95368.47;;;14.21;59.13
77871;BME280;67067;46.850;7.578;2023-09-19T01:56:58;95368.47;;;14.21;59.79
77871;BME280;67067;46.850;7.578;2023-09-19T01:58:15;95373.81;;;14.16;59.61
77871;BME280;67067;46.850;7.578;2023-09-19T01:59:24;95371.91;;;14.22;59.39
77871;BME280;67067;46.850;7.578;2023-09-19T02:02:21;95367.94;;;14.24;59.22
77871;BME280;67067;46.850;7.578;2023-09-19T02:03:24;95374.03;;;14.25;58.89
77871;BME280;67067;46.850;7.578;2023-09-19T02:04:29;95371.66;;;14.28;59.08
77871;BME280;67067;46.850;7.578;2023-09-19T02:05:31;95376.44;;;14.32;59.04
77871;BME280;67067;46.850;7.578;2023-09-19T02:06:40;95370.59;;;14.29;58.94
77871;BME280;67067;46.850;7.578;2023-09-19T02:07:42;95375.09;;;14.29;58.97
77871;BME280;67067;46.850;7.578;2023-09-19T02:08:46;95380.19;;;14.30;59.08
77871;BME280;67067;46.850;7.578;2023-09-19T02:09:48;95375.94;;;14.29;59.19
77871;BME280;67067;46.850;7.578;2023-09-19T02:10:50;95368.72;;;14.30;59.00
77871;BME280;67067;46.850;7.578;2023-09-19T02:11:55;95379.38;;;14.30;59.10
77871;BME280;67067;46.850;7.578;2023-09-19T02:12:57;95381.78;;;14.32;59.07
77871;BME280;67067;46.850;7.578;2023-09-19T02:14:03;95383.91;;;14.29;59.10
77871;BME280;67067;46.850;7.578;2023-09-19T02:15:06;95375.94;;;14.29;59.26
77871;BME280;67067;46.850;7.578;2023-09-19T02:16:09;95385.50;;;14.30;59.27
77871;BME280;67067;46.850;7.578;2023-09-19T02:17:16;95377.78;;;14.29;59.23
77871;BME280;67067;46.850;7.578;2023-09-19T02:18:18;95367.94;;;14.29;58.92
77871;BME280;67067;46.850;7.578;2023-09-19T02:19:21;95366.84;;;14.25;59.26
77871;BME280;67067;46.850;7.578;2023-09-19T02:20:23;95378.81;;;14.28;59.05
77871;BME280;67067;46.850;7.578;2023-09-19T02:21:26;95378.59;;;14.29;59.16
77871;BME280;67067;46.850;7.578;2023-09-19T02:22:31;95383.91;;;14.29;59.39
77871;BME280;67067;46.850;7.578;2023-09-19T02:23:34;95388.41;;;14.29;59.21
77871;BME280;67067;46.850;7.578;2023-09-19T02:24:38;95382.31;;;14.18;59.24
77871;BME280;67067;46.850;7.578;2023-09-19T02:25:40;95378.03;;;14.33;59.33
77871;BME280;67067;46.850;7.578;2023-09-19T02:26:42;95387.09;;;14.32;59.20
77871;BME280;67067;46.850;7.578;2023-09-19T02:27:45;95384.97;;;14.28;59.42
77871;BME280;67067;46.850;7.578;2023-09-19T02:28:47;95391.34;;;14.27;59.37
77871;BME280;67067;46.850;7.578;2023-09-19T02:29:49;95391.34;;;14.27;59.41
77871;BME280;67067;46.850;7.578;2023-09-19T02:30:51;95388.19;;;14.15;59.56
77871;BME280;67067;46.850;7.578;2023-09-19T02:31:52;95392.41;;;14.26;59.30
77871;BME280;67067;46.850;7.578;2023-09-19T02:32:58;95383.91;;;14.29;59.33
77871;BME280;67067;46.850;7.578;2023-09-19T02:34:03;95390.53;;;14.32;59.04
77871;BME280;67067;46.850;7.578;2023-09-19T02:35:08;95387.09;;;14.32;59.08
77871;BME280;67067;46.850;7.578;2023-09-19T02:36:12;95390.00;;;14.30;59.20
77871;BME280;67067;46.850;7.578;2023-09-19T02:37:20;95391.91;;;14.29;59.07
77871;BME280;67067;46.850;7.578;2023-09-19T02:38:23;95382.84;;;14.30;59.46
77871;BME280;67067;46.850;7.578;2023-09-19T02:39:26;95385.50;;;14.30;59.14
77871;BME280;67067;46.850;7.578;2023-09-19T02:40:31;95374.56;;;14.27;58.78
77871;BME280;67067;46.850;7.578;2023-09-19T02:41:37;95382.00;;;14.25;59.08
77871;BME280;67067;46.850;7.578;2023-09-19T02:42:39;95381.00;;;14.10;59.62
77871;BME280;67067;46.850;7.578;2023-09-19T02:43:43;95377.00;;;14.18;59.46
77871;BME280;67067;46.850;7.578;2023-09-19T02:44:47;95380.97;;;14.21;59.44
77871;BME280;67067;46.850;7.578;2023-09-19T02:45:50;95387.63;;;14.23;59.13
77871;BME280;67067;46.850;7.578;2023-09-19T02:46:54;95383.63;;;14.21;59.17
77871;BME280;67067;46.850;7.578;2023-09-19T02:47:56;95380.72;;;14.22;59.02
77871;BME280;67067;46.850;7.578;2023-09-19T02:48:58;95378.06;;;14.22;59.23
77871;BME280;67067;46.850;7.578;2023-09-19T02:50:00;95376.69;;;14.25;59.07
77871;BME280;67067;46.850;7.578;2023-09-19T02:51:08;95383.63;;;14.26;58.65
77871;BME280;67067;46.850;7.578;2023-09-19T02:52:12;95374.84;;;14.25;59.08
77871;BME280;67067;46.850;7.578;2023-09-19T02:53:18;95379.88;;;14.27;58.96
77871;BME280;67067;46.850;7.578;2023-09-19T02:54:21;95375.63;;;14.26;59.12
77871;BME280;67067;46.850;7.578;2023-09-19T02:55:23;95375.09;;;14.24;59.20
77871;BME280;67067;46.850;7.578;2023-09-19T02:56:29;95375.91;;;14.24;59.16
77871;BME280;67067;46.850;7.578;2023-09-19T02:57:35;95366.84;;;14.25;59.10
77871;BME280;67067;46.850;7.578;2023-09-19T02:58:37;95381.47;;;14.28;59.08
77871;BME280;67067;46.850;7.578;2023-09-19T02:59:42;95373.78;;;14.26;59.18
77871;BME280;67067;46.850;7.578;2023-09-19T03:00:48;95372.19;;;14.25;59.31
77871;BME280;67067;46.850;7.578;2023-09-19T03:01:52;95372.44;;;14.24;59.41
77871;BME280;67067;46.850;7.578;2023-09-19T03:02:56;95377.75;;;14.24;59.31
77871;BME280;67067;46.850;7.578;2023-09-19T03:04:01;95373.78;;;14.26;59.45
77871;BME280;67067;46.850;7.578;2023-09-19T03:05:05;95375.66;;;14.21;59.21
77871;BME280;67067;46.850;7.578;2023-09-19T03:06:07;95376.16;;;14.23;59.54
77871;BME280;67067;46.850;7.578;2023-09-19T03:07:10;95375.91;;;14.24;59.30
77871;BME280;67067;46.850;7.578;2023-09-19T03:08:15;95375.63;;;14.26;59.02
77871;BME280;67067;46.850;7.578;2023-09-19T03:09:16;95375.38;;;14.27;58.97
77871;BME280;67067;46.850;7.578;2023-09-19T03:10:19;95367.41;;;14.22;59.10
77871;BME280;67067;46.850;7.578;2023-09-19T03:11:22;95362.88;;;14.23;59.22
77871;BME280;67067;46.850;7.578;2023-09-19T03:12:27;95375.91;;;14.24;58.87
77871;BME280;67067;46.850;7.578;2023-09-19T03:13:31;95374.84;;;14.30;58.93
77871;BME280;67067;46.850;7.578;2023-09-19T03:14:36;95379.88;;;14.27;58.62
77871;BME280;67067;46.850;7.578;2023-09-19T03:15:42;95377.50;;;14.25;58.82
77871;BME280;67067;46.850;7.578;2023-09-19T03:16:51;95385.22;;;14.27;58.80
77871;BME280;67067;46.850;7.578;2023-09-19T03:17:53;95379.09;;;14.26;58.78
77871;BME280;67067;46.850;7.578;2023-09-19T03:18:58;95378.03;;;14.27;58.85
77871;BME280;67067;46.850;7.578;2023-09-19T03:20:04;95371.38;;;14.25;58.95
77871;BME280;67067;46.850;7.578;2023-09-19T03:21:09;95374.03;;;14.25;58.96
77871;BME280;67067;46.850;7.578;2023-09-19T03:22:14;95374.31;;;14.23;58.62
77871;BME280;67067;46.850;7.578;2023-09-19T03:23:17;95372.72;;;14.22;58.93
77871;BME280;67067;46.850;7.578;2023-09-19T03:24:18;95372.78;;;14.07;59.41
77871;BME280;67067;46.850;7.578;2023-09-19T03:25:21;95374.34;;;14.18;58.96
77871;BME280;67067;46.850;7.578;2023-09-19T03:26:25;95377.25;;;14.22;59.21
77871;BME280;67067;46.850;7.578;2023-09-19T03:27:27;95374.88;;;14.20;59.34
77871;BME280;67067;46.850;7.578;2023-09-19T03:28:29;95378.34;;;14.05;59.47
77871;BME280;67067;46.850;7.578;2023-09-19T03:29:33;95376.72;;;14.14;59.33
77871;BME280;67067;46.850;7.578;2023-09-19T03:30:36;95381.28;;;14.14;59.56
77871;BME280;67067;46.850;7.578;2023-09-19T03:31:39;95382.88;;;14.15;59.37
77871;BME280;67067;46.850;7.578;2023-09-19T03:32:46;95381.28;;;14.14;59.39
77871;BME280;67067;46.850;7.578;2023-09-19T03:33:51;95381.25;;;14.19;59.26
77871;BME280;67067;46.850;7.578;2023-09-19T03:34:52;95377.81;;;14.08;59.53
77871;BME280;67067;46.850;7.578;2023-09-19T03:35:54;95377.53;;;14.20;59.27
77871;BME280;67067;46.850;7.578;2023-09-19T03:36:56;95376.72;;;14.20;59.12
77871;BME280;67067;46.850;7.578;2023-09-19T03:38:00;95376.47;;;14.21;58.90
77871;BME280;67067;46.850;7.578;2023-09-19T03:39:04;95380.19;;;14.20;59.05
77871;BME280;67067;46.850;7.578;2023-09-19T03:40:10;95383.09;;;14.19;58.92
77871;BME280;67067;46.850;7.578;2023-09-19T03:41:12;95379.66;;;14.18;59.33
77871;BME280;67067;46.850;7.578;2023-09-19T03:42:18;95381.25;;;14.19;58.94
77871;BME280;67067;46.850;7.578;2023-09-19T03:43:29;95381.78;;;14.16;59.20
77871;BME280;67067;46.850;7.578;2023-09-19T03:44:33;95385.50;;;14.20;59.19
77871;BME280;67067;46.850;7.578;2023-09-19T03:45:37;95381.25;;;14.19;59.46
77871;BME280;67067;46.850;7.578;2023-09-19T03:46:44;95382.84;;;14.20;59.17
77871;BME280;67067;46.850;7.578;2023-09-19T03:47:49;95384.97;;;14.23;59.26
77871;BME280;67067;46.850;7.578;2023-09-19T03:48:54;95385.50;;;14.25;59.14
77871;BME280;67067;46.850;7.578;2023-09-19T03:49:56;95380.69;;;14.27;59.08
77871;BME280;67067;46.850;7.578;2023-09-19T03:51:00;95389.75;;;14.26;59.34
77871;BME280;67067;46.850;7.578;2023-09-19T03:52:03;95385.50;;;14.25;59.32
77871;BME280;67067;46.850;7.578;2023-09-19T03:53:05;95392.13;;;14.28;59.13
77871;BME280;67067;46.850;7.578;2023-09-19T03:54:09;95383.91;;;14.29;59.33
77871;BME280;67067;46.850;7.578;2023-09-19T03:55:11;95386.31;;;14.15;59.36
77871;BME280;67067;46.850;7.578;2023-09-19T03:56:13;95387.09;;;14.26;59.06
77871;BME280;67067;46.850;7.578;2023-09-19T03:57:15;95386.28;;;14.26;59.06
77871;BME280;67067;46.850;7.578;2023-09-19T03:58:24;95387.34;;;14.25;59.04
77871;BME280;67067;46.850;7.578;2023-09-19T03:59:26;95381.47;;;14.28;59.04
77871;BME280;67067;46.850;7.578;2023-09-19T04:00:28;95390.81;;;14.30;58.68
77871;BME280;67067;46.850;7.578;2023-09-19T04:01:32;95387.63;;;14.28;58.67
77871;BME280;67067;46.850;7.578;2023-09-19T04:02:35;95384.69;;;14.30;59.06
77871;BME280;67067;46.850;7.578;2023-09-19T04:03:37;95390.81;;;14.30;59.09
77871;BME280;67067;46.850;7.578;2023-09-19T04:04:52;95389.75;;;14.32;58.97
77871;BME280;67067;46.850;7.578;2023-09-19T04:05:54;95387.09;;;14.32;58.71
77871;BME280;67067;46.850;7.578;2023-09-19T04:06:55;95381.53;;;14.12;59.24
77871;BME280;67067;46.850;7.578;2023-09-19T04:07:59;95384.47;;;14.16;58.79
77871;BME280;67067;46.850;7.578;2023-09-19T04:09:06;95392.44;;;14.21;58.74
77871;BME280;67067;46.850;7.578;2023-09-19T04:10:11;95391.38;;;14.17;59.23
77871;BME280;67067;46.850;7.578;2023-09-19T04:11:13;95399.34;;;14.22;58.81
77871;BME280;67067;46.850;7.578;2023-09-19T04:12:20;95396.41;;;14.24;58.99
77871;BME280;67067;46.850;7.578;2023-09-19T04:13:25;95387.66;;;14.18;58.93
77871;BME280;67067;46.850;7.578;2023-09-19T04:14:27;95392.69;;;14.20;59.11
77871;BME280;67067;46.850;7.578;2023-09-19T04:15:29;95385.53;;;14.10;59.14
77871;BME280;67067;46.850;7.578;2023-09-19T04:16:31;95384.97;;;14.18;58.92
77871;BME280;67067;46.850;7.578;2023-09-19T04:17:33;95387.38;;;14.14;58.94
77871;BME280;67067;46.850;7.578;2023-09-19T04:18:35;95387.38;;;14.14;58.91
77871;BME280;67067;46.850;7.578;2023-09-19T04:19:40;95388.19;;;14.15;58.96
77871;BME280;67067;46.850;7.578;2023-09-19T04:20:48;95385.00;;;14.13;58.99
77871;BME280;67067;46.850;7.578;2023-09-19T04:21:50;95384.47;;;14.16;59.15
77871;BME280;67067;46.850;7.578;2023-09-19T04:22:52;95375.94;;;14.04;59.13
77871;BME280;67067;46.850;7.578;2023-09-19T04:23:54;95371.16;;;14.16;58.85
77871;BME280;67067;46.850;7.578;2023-09-19T04:24:55;95364.78;;;14.07;59.30
77871;BME280;67067;46.850;7.578;2023-09-19T04:25:57;95377.00;;;14.18;58.96
77871;BME280;67067;46.850;7.578;2023-09-19T04:27:02;95367.94;;;14.19;58.85
77871;BME280;67067;46.850;7.578;2023-09-19T04:28:06;95382.31;;;14.23;58.98
77871;BME280;67067;46.850;7.578;2023-09-19T04:29:08;95380.16;;;14.25;58.83
77871;BME280;67067;46.850;7.578;2023-09-19T04:30:12;95376.16;;;14.23;59.08
77871;BME280;67067;46.850;7.578;2023-09-19T04:31:14;95379.69;;;14.08;59.22
77871;BME280;67067;46.850;7.578;2023-09-19T04:32:18;95380.72;;;14.17;58.88
77871;BME280;67067;46.850;7.578;2023-09-19T04:33:19;95385.75;;;14.19;59.12
77871;BME280;67067;46.850;7.578;2023-09-19T04:34:21;95375.44;;;14.07;59.16
77871;BME280;67067;46.850;7.578;2023-09-19T04:35:23;95379.13;;;14.16;59.17
77871;BME280;67067;46.850;7.578;2023-09-19T04:36:24;95374.34;;;14.02;59.49
77871;BME280;67067;46.850;7.578;2023-09-19T04:37:42;95373.28;;;14.14;59.22
77871;BME280;67067;46.850;7.578;2023-09-19T04:38:46;95374.88;;;14.15;58.80
77871;BME280;67067;46.850;7.578;2023-09-19T04:39:48;95366.38;;;14.13;59.09
77871;BME280;67067;46.850;7.578;2023-09-19T04:40:57;95367.69;;;14.10;59.11
77871;BME280;67067;46.850;7.578;2023-09-19T04:42:04;95378.88;;;14.12;59.25
77871;BME280;67067;46.850;7.578;2023-09-19T04:43:10;95373.31;;;14.09;59.21
77871;BME280;67067;46.850;7.578;2023-09-19T04:44:12;95381.00;;;14.10;59.56
77871;BME280;67067;46.850;7.578;2023-09-19T04:45:15;95379.41;;;14.09;59.35
77871;BME280;67067;46.850;7.578;2023-09-19T04:46:19;95374.59;;;14.11;59.26
77871;BME280;67067;46.850;7.578;2023-09-19T04:47:21;95378.59;;;14.14;59.14
77871;BME280;67067;46.850;7.578;2023-09-19T04:48:24;95379.69;;;14.13;59.46
77871;BME280;67067;46.850;7.578;2023-09-19T04:49:26;95380.97;;;14.15;59.24
77871;BME280;67067;46.850;7.578;2023-09-19T04:50:27;95382.91;;;14.05;59.27
77871;BME280;67067;46.850;7.578;2023-09-19T04:51:30;95388.72;;;14.12;59.48
77871;BME280;67067;46.850;7.578;2023-09-19T04:52:35;95385.78;;;14.13;59.25
77871;BME280;67067;46.850;7.578;2023-09-19T04:53:42;95386.59;;;14.14;59.25
77871;BME280;67067;46.850;7.578;2023-09-19T04:54:45;95388.97;;;14.15;58.82
77871;BME280;67067;46.850;7.578;2023-09-19T04:55:53;95381.81;;;14.11;58.77
77871;BME280;67067;46.850;7.578;2023-09-19T04:56:57;95387.66;;;14.13;59.07
77871;BME280;67067;46.850;7.578;2023-09-19T04:57:58;95386.59;;;14.04;59.13
77871;BME280;67067;46.850;7.578;2023-09-19T04:59:03;95387.66;;;14.13;58.91
77871;BME280;67067;46.850;7.578;2023-09-19T05:00:05;95388.72;;;14.12;59.17
77871;BME280;67067;46.850;7.578;2023-09-19T05:01:13;95388.19;;;14.10;59.16
77871;BME280;67067;46.850;7.578;2023-09-19T05:02:36;95390.59;;;14.11;59.04
77871;BME280;67067;46.850;7.578;2023-09-19T05:03:41;95396.19;;;14.10;59.10
77871;BME280;67067;46.850;7.578;2023-09-19T05:04:46;95394.59;;;14.09;59.15
77871;BME280;67067;46.850;7.578;2023-09-19T05:05:48;95400.16;;;14.12;59.19
77871;BME280;67067;46.850;7.578;2023-09-19T05:06:49;95397.25;;;14.14;58.68
77871;BME280;67067;46.850;7.578;2023-09-19T05:07:52;95397.50;;;14.12;59.11
77871;BME280;67067;46.850;7.578;2023-09-19T05:08:58;95403.34;;;14.14;58.90
77871;BME280;67067;46.850;7.578;2023-09-19T05:10:00;95396.94;;;14.15;58.98
77871;BME280;67067;46.850;7.578;2023-09-19T05:11:04;95402.03;;;14.17;59.22
77871;BME280;67067;46.850;7.578;2023-09-19T05:12:07;95397.75;;;14.16;59.07
77871;BME280;67067;46.850;7.578;2023-09-19T05:13:09;95398.88;;;14.05;59.21
77871;BME280;67067;46.850;7.578;2023-09-19T05:14:13;95395.34;;;14.14;59.01
77871;BME280;67067;46.850;7.578;2023-09-19T05:15:15;95409.47;;;14.15;59.03
77871;BME280;67067;46.850;7.578;2023-09-19T05:16:23;95407.88;;;14.14;58.92
77871;BME280;67067;46.850;7.578;2023-09-19T05:17:25;95405.47;;;14.12;59.16
77871;BME280;67067;46.850;7.578;2023-09-19T05:18:27;95406.00;;;14.14;59.07
77871;BME280;67067;46.850;7.578;2023-09-19T05:19:31;95409.72;;;14.13;59.09
77871;BME280;67067;46.850;7.578;2023-09-19T05:20:33;95402.25;;;14.21;58.71
77871;BME280;67067;46.850;7.578;2023-09-19T05:21:37;95406.81;;;14.20;58.76
77871;BME280;67067;46.850;7.578;2023-09-19T05:22:41;95407.88;;;14.14;59.12
77871;BME280;67067;46.850;7.578;2023-09-19T05:23:43;95418.25;;;14.10;59.35
77871;BME280;67067;46.850;7.578;2023-09-19T05:24:47;95422.50;;;14.11;59.18
77871;BME280;67067;46.850;7.578;2023-09-19T05:25:50;95418.00;;;14.12;59.19
77871;BME280;67067;46.850;7.578;2023-09-19T05:26:53;95415.88;;;14.14;58.94
77871;BME280;67067;46.850;7.578;2023-09-19T05:27:59;95426.75;;;14.17;58.98
77871;BME280;67067;46.850;7.578;2023-09-19T05:29:02;95424.38;;;14.21;59.00
77871;BME280;67067;46.850;7.578;2023-09-19T05:30:05;95424.59;;;14.25;59.07
77871;BME280;67067;46.850;7.578;2023-09-19T05:31:08;95435.00;;;14.21;59.10
77871;BME280;67067;46.850;7.578;2023-09-19T05:32:10;95433.16;;;14.06;59.44
77871;BME280;67067;46.850;7.578;2023-09-19T05:33:12;95439.56;;;14.05;59.27
77871;BME280;67067;46.850;7.578;2023-09-19T05:34:13;95437.16;;;14.19;59.34
77871;BME280;67067;46.850;7.578;2023-09-19T05:35:15;95436.88;;;14.10;59.22
77871;BME280;67067;46.850;7.578;2023-09-19T05:36:17;95434.47;;;14.24;59.12
77871;BME280;67067;46.850;7.578;2023-09-19T05:37:19;95440.34;;;14.16;59.13
77871;BME280;67067;46.850;7.578;2023-09-19T05:38:21;95436.06;;;14.25;58.95
77871;BME280;67067;46.850;7.578;2023-09-19T05:39:23;95440.88;;;14.28;58.45
77871;BME280;67067;46.850;7.578;2023-09-19T05:40:25;95435.81;;;14.11;59.10
77871;BME280;67067;46.850;7.578;2023-09-19T05:41:27;95441.94;;;14.22;58.88
77871;BME280;67067;46.850;7.578;2023-09-19T05:42:28;95439.81;;;14.14;59.17
77871;BME280;67067;46.850;7.578;2023-09-19T05:43:30;95440.03;;;14.28;58.98
77871;BME280;67067;46.850;7.578;2023-09-19T05:44:32;95447.00;;;14.29;58.71
77871;BME280;67067;46.850;7.578;2023-09-19T05:45:35;95445.91;;;14.25;58.99
77871;BME280;67067;46.850;7.578;2023-09-19T05:46:38;95442.97;;;14.26;58.78
77871;BME280;67067;46.850;7.578;2023-09-19T05:47:40;95440.03;;;14.28;58.86
77871;BME280;67067;46.850;7.578;2023-09-19T05:48:43;95437.66;;;14.26;58.75
77871;BME280;67067;46.850;7.578;2023-09-19T05:49:45;95436.06;;;14.25;58.96
77871;BME280;67067;46.850;7.578;2023-09-19T05:50:47;95447.81;;;14.14;59.18
77871;BME280;67067;46.850;7.578;2023-09-19T05:51:50;95450.44;;;14.24;58.75
77871;BME280;67067;46.850;7.578;2023-09-19T05:52:55;95454.69;;;14.25;58.62
77871;BME280;67067;46.850;7.578;2023-09-19T05:53:59;95451.75;;;14.27;58.63
77871;BME280;67067;46.850;7.578;2023-09-19T05:55:01;95451.78;;;14.16;58.79